createdAt,value
2018-06-16T00:00:58.114Z,988.37
2018-06-16T00:02:04.708Z,988.38
2018-06-16T00:03:11.782Z,988.34
2018-06-16T00:04:19.012Z,988.32
2018-06-16T00:05:25.718Z,988.39
2018-06-16T00:06:32.340Z,988.41
2018-06-16T00:07:39.471Z,988.35
2018-06-16T00:08:46.602Z,988.38
2018-06-16T00:09:53.616Z,988.37
2018-06-16T00:11:00.627Z,988.37
2018-06-16T00:12:09.645Z,988.44
2018-06-16T00:13:14.742Z,988.41
2018-06-16T00:14:21.078Z,988.39
2018-06-16T00:15:27.986Z,988.40
2018-06-16T00:16:34.926Z,988.38
2018-06-16T00:17:41.947Z,988.35
2018-06-16T00:18:48.998Z,988.29
2018-06-16T00:19:55.971Z,988.38
2018-06-16T00:21:02.901Z,988.34
2018-06-16T00:22:09.778Z,988.34
2018-06-16T00:23:16.723Z,988.34
2018-06-16T00:24:23.726Z,988.30
2018-06-16T00:25:30.814Z,988.31
2018-06-16T00:26:37.807Z,988.32
2018-06-16T00:27:44.794Z,988.35
2018-06-16T00:28:51.823Z,988.37
2018-06-16T00:29:58.753Z,988.29
2018-06-16T00:31:05.879Z,988.32
2018-06-16T00:32:12.463Z,988.32
2018-06-16T00:33:19.583Z,988.31
2018-06-16T00:34:26.290Z,988.33
2018-06-16T00:35:33.341Z,988.39
2018-06-16T00:36:40.403Z,988.33
2018-06-16T00:37:47.283Z,988.35
2018-06-16T00:38:54.267Z,988.32
2018-06-16T00:40:01.219Z,988.31
2018-06-16T00:41:07.795Z,988.31
2018-06-16T00:42:14.766Z,988.26
2018-06-16T00:43:21.874Z,988.34
2018-06-16T00:44:28.842Z,988.37
2018-06-16T00:45:37.043Z,988.24
2018-06-16T00:46:42.949Z,988.34
2018-06-16T00:47:49.975Z,988.35
2018-06-16T00:48:56.918Z,988.32
2018-06-16T00:50:03.934Z,988.36
2018-06-16T00:51:10.747Z,988.29
2018-06-16T00:52:17.958Z,988.34
2018-06-16T00:53:24.467Z,988.24
2018-06-16T00:54:31.447Z,988.25
2018-06-16T00:55:38.346Z,988.25
2018-06-16T00:56:45.171Z,988.20
2018-06-16T00:57:52.320Z,988.23
2018-06-16T00:58:59.282Z,988.24
2018-06-16T01:00:06.150Z,988.17
2018-06-16T01:01:13.101Z,988.15
2018-06-16T01:02:20.028Z,988.18
2018-06-16T01:03:26.963Z,988.20
2018-06-16T01:04:33.866Z,988.26
2018-06-16T01:05:40.832Z,988.17
2018-06-16T01:06:47.799Z,988.24
2018-06-16T01:07:54.596Z,988.16
2018-06-16T01:09:01.549Z,988.26
2018-06-16T01:10:08.552Z,988.16
2018-06-16T01:11:15.296Z,988.24
2018-06-16T01:12:22.117Z,988.22
2018-06-16T01:13:29.036Z,988.21
2018-06-16T01:14:35.942Z,988.20
2018-06-16T01:15:42.962Z,988.19
2018-06-16T01:16:49.891Z,988.06
2018-06-16T01:17:56.811Z,988.15
2018-06-16T01:19:03.851Z,988.11
2018-06-16T01:20:10.752Z,988.05
2018-06-16T01:21:17.670Z,988.14
2018-06-16T01:22:24.644Z,988.05
2018-06-16T01:23:31.630Z,988.08
2018-06-16T01:24:38.575Z,988.05
2018-06-16T01:25:45.506Z,988.05
2018-06-16T01:26:52.385Z,988.09
2018-06-16T01:27:59.228Z,988.04
2018-06-16T01:29:06.142Z,988.04
2018-06-16T01:30:13.043Z,988.05
2018-06-16T01:31:19.976Z,988.08
2018-06-16T01:32:26.899Z,988.05
2018-06-16T01:33:33.965Z,987.98
2018-06-16T01:34:40.878Z,988.03
2018-06-16T01:35:47.858Z,988.04
2018-06-16T01:36:54.786Z,988.02
2018-06-16T01:38:01.706Z,988.01
2018-06-16T01:39:08.722Z,988.01
2018-06-16T01:40:15.762Z,988.04
2018-06-16T01:41:22.700Z,988.02
2018-06-16T01:42:29.706Z,988.11
2018-06-16T01:43:36.613Z,988.04
2018-06-16T01:44:43.565Z,988.06
2018-06-16T01:45:50.451Z,988.02
2018-06-16T01:46:57.387Z,987.96
2018-06-16T01:48:04.448Z,987.98
2018-06-16T01:49:11.226Z,987.99
2018-06-16T01:50:18.187Z,988.07
2018-06-16T01:51:25.085Z,987.99
2018-06-16T01:52:31.998Z,988.06
2018-06-16T01:53:38.975Z,988.04
2018-06-16T01:54:45.898Z,987.99
2018-06-16T01:55:52.811Z,988.04
2018-06-16T01:56:59.612Z,988.05
2018-06-16T01:58:06.581Z,987.96
2018-06-16T01:59:13.552Z,987.96
2018-06-16T02:00:20.607Z,987.95
2018-06-16T02:01:27.455Z,988.01
2018-06-16T02:02:34.326Z,987.96
2018-06-16T02:03:41.287Z,988.00
2018-06-16T02:04:48.215Z,987.98
2018-06-16T02:05:55.090Z,987.96
2018-06-16T02:07:02.036Z,987.94
2018-06-16T02:08:08.927Z,987.90
2018-06-16T02:09:15.894Z,987.93
2018-06-16T02:10:22.773Z,987.96
2018-06-16T02:11:29.692Z,987.94
2018-06-16T02:12:36.470Z,987.90
2018-06-16T02:13:43.334Z,987.93
2018-06-16T02:14:50.171Z,987.85
2018-06-16T02:15:57.147Z,988.00
2018-06-16T02:17:04.302Z,987.87
2018-06-16T02:18:10.786Z,987.92
2018-06-16T02:19:17.781Z,987.87
2018-06-16T02:20:24.542Z,987.92
2018-06-16T02:21:31.402Z,987.93
2018-06-16T02:22:38.407Z,988.01
2018-06-16T02:23:45.378Z,987.95
2018-06-16T02:24:52.287Z,987.95
2018-06-16T02:25:59.198Z,987.95
2018-06-16T02:27:06.133Z,987.98
2018-06-16T02:28:13.053Z,987.96
2018-06-16T02:29:20.009Z,987.97
2018-06-16T02:30:26.870Z,987.97
2018-06-16T02:31:33.669Z,987.95
2018-06-16T02:32:40.469Z,987.92
2018-06-16T02:33:47.250Z,987.96
2018-06-16T02:34:54.184Z,987.92
2018-06-16T02:36:00.897Z,988.00
2018-06-16T02:37:07.855Z,987.97
2018-06-16T02:38:14.737Z,987.98
2018-06-16T02:39:21.670Z,987.90
2018-06-16T02:40:28.486Z,987.91
2018-06-16T02:41:35.253Z,987.91
2018-06-16T02:42:42.257Z,987.88
2018-06-16T02:43:49.021Z,987.86
2018-06-16T02:44:56.169Z,987.83
2018-06-16T02:46:02.992Z,987.88
2018-06-16T02:47:09.842Z,987.86
2018-06-16T02:48:16.773Z,987.89
2018-06-16T02:49:23.683Z,987.88
2018-06-16T02:50:30.580Z,987.86
2018-06-16T02:51:37.424Z,987.86
2018-06-16T02:52:44.337Z,987.90
2018-06-16T02:53:51.250Z,987.90
2018-06-16T02:54:58.081Z,987.87
2018-06-16T02:56:04.983Z,987.87
2018-06-16T02:57:11.806Z,987.85
2018-06-16T02:58:18.615Z,987.85
2018-06-16T02:59:25.651Z,987.86
2018-06-16T03:00:32.444Z,987.88
2018-06-16T03:01:39.154Z,987.85
2018-06-16T03:02:45.888Z,987.81
2018-06-16T03:03:52.809Z,987.85
2018-06-16T03:04:59.537Z,987.88
2018-06-16T03:06:06.306Z,987.90
2018-06-16T03:07:13.094Z,987.90
2018-06-16T03:08:19.874Z,987.80
2018-06-16T03:09:26.814Z,987.83
2018-06-16T03:10:33.696Z,987.78
2018-06-16T03:11:40.426Z,987.82
2018-06-16T03:12:47.133Z,987.80
2018-06-16T03:13:53.841Z,987.82
2018-06-16T03:15:00.560Z,987.84
2018-06-16T03:16:07.277Z,987.82
2018-06-16T03:17:14.106Z,987.86
2018-06-16T03:18:20.907Z,987.82
2018-06-16T03:19:27.782Z,987.85
2018-06-16T03:20:34.534Z,987.77
2018-06-16T03:21:41.254Z,987.79
2018-06-16T03:22:47.958Z,987.81
2018-06-16T03:23:54.794Z,987.76
2018-06-16T03:25:01.559Z,987.81
2018-06-16T03:26:08.461Z,987.80
2018-06-16T03:27:15.234Z,987.78
2018-06-16T03:28:22.111Z,987.77
2018-06-16T03:29:28.893Z,987.77
2018-06-16T03:30:35.826Z,987.75
2018-06-16T03:31:42.726Z,987.80
2018-06-16T03:32:49.648Z,987.75
2018-06-16T03:33:56.574Z,987.81
2018-06-16T03:35:03.494Z,987.80
2018-06-16T03:36:10.378Z,987.79
2018-06-16T03:37:17.165Z,987.92
2018-06-16T03:38:23.944Z,987.85
2018-06-16T03:39:30.671Z,987.83
2018-06-16T03:40:37.539Z,987.89
2018-06-16T03:41:44.291Z,987.85
2018-06-16T03:42:51.161Z,987.87
2018-06-16T03:43:58.063Z,987.87
2018-06-16T03:45:04.791Z,987.92
2018-06-16T03:46:11.711Z,987.89
2018-06-16T03:47:18.493Z,987.88
2018-06-16T03:48:25.301Z,987.85
2018-06-16T03:49:32.493Z,987.85
2018-06-16T03:50:39.251Z,987.78
2018-06-16T03:51:46.220Z,987.82
2018-06-16T03:52:53.076Z,987.81
2018-06-16T03:53:59.894Z,987.84
2018-06-16T03:55:06.870Z,987.84
2018-06-16T03:56:13.771Z,987.89
2018-06-16T03:57:20.666Z,987.80
2018-06-16T03:58:27.603Z,987.88
2018-06-16T03:59:34.603Z,987.90
2018-06-16T04:00:41.550Z,987.88
2018-06-16T04:01:48.940Z,987.84
2018-06-16T04:02:55.798Z,987.81
2018-06-16T04:04:02.767Z,987.83
2018-06-16T04:05:09.639Z,987.81
2018-06-16T04:06:16.468Z,987.85
2018-06-16T04:07:23.386Z,987.82
2018-06-16T04:08:30.176Z,987.90
2018-06-16T04:09:37.027Z,987.91
2018-06-16T04:10:43.961Z,987.85
2018-06-16T04:11:50.834Z,987.80
2018-06-16T04:12:57.837Z,987.82
2018-06-16T04:14:04.791Z,987.81
2018-06-16T04:15:11.890Z,987.85
2018-06-16T04:16:18.726Z,987.91
2018-06-16T04:17:25.644Z,987.77
2018-06-16T04:18:32.668Z,987.89
2018-06-16T04:19:39.626Z,987.92
2018-06-16T04:20:46.531Z,987.81
2018-06-16T04:21:53.318Z,987.87
2018-06-16T04:23:00.047Z,987.86
2018-06-16T04:24:06.934Z,987.87
2018-06-16T04:25:13.865Z,987.88
2018-06-16T04:26:20.762Z,987.89
2018-06-16T04:27:27.721Z,987.96
2018-06-16T04:28:34.945Z,987.92
2018-06-16T04:29:41.360Z,987.91
2018-06-16T04:30:48.270Z,987.94
2018-06-16T04:31:55.212Z,987.94
2018-06-16T04:33:01.855Z,987.95
2018-06-16T04:34:08.645Z,987.86
2018-06-16T04:35:15.530Z,987.91
2018-06-16T04:36:22.444Z,988.00
2018-06-16T04:37:29.297Z,987.98
2018-06-16T04:38:36.118Z,987.87
2018-06-16T04:39:42.834Z,987.89
2018-06-16T04:40:50.063Z,987.90
2018-06-16T04:41:56.478Z,987.89
2018-06-16T04:43:03.229Z,987.94
2018-06-16T04:44:10.182Z,987.93
2018-06-16T04:45:16.873Z,987.90
2018-06-16T04:46:23.800Z,987.88
2018-06-16T04:47:30.621Z,987.98
2018-06-16T04:48:37.677Z,987.90
2018-06-16T04:49:44.443Z,987.95
2018-06-16T04:50:51.367Z,987.93
2018-06-16T04:51:58.182Z,987.92
2018-06-16T04:53:05.085Z,987.99
2018-06-16T04:54:11.856Z,987.99
2018-06-16T04:55:18.641Z,987.97
2018-06-16T04:56:25.330Z,987.98
2018-06-16T04:57:32.131Z,987.98
2018-06-16T04:58:39.066Z,987.93
2018-06-16T04:59:45.968Z,987.96
2018-06-16T05:00:52.982Z,988.02
2018-06-16T05:01:59.738Z,987.95
2018-06-16T05:03:06.591Z,987.95
2018-06-16T05:04:13.277Z,987.96
2018-06-16T05:05:20.334Z,987.98
2018-06-16T05:06:27.141Z,987.94
2018-06-16T05:07:33.835Z,987.94
2018-06-16T05:08:40.656Z,987.93
2018-06-16T05:09:47.739Z,987.92
2018-06-16T05:10:54.775Z,987.96
2018-06-16T05:12:01.766Z,987.96
2018-06-16T05:13:08.725Z,988.04
2018-06-16T05:14:15.633Z,987.99
2018-06-16T05:15:22.346Z,988.00
2018-06-16T05:16:29.158Z,987.93
2018-06-16T05:17:35.971Z,987.92
2018-06-16T05:18:42.886Z,987.94
2018-06-16T05:19:50.001Z,987.99
2018-06-16T05:20:56.718Z,988.03
2018-06-16T05:22:03.663Z,988.05
2018-06-16T05:23:10.765Z,988.10
2018-06-16T05:24:17.648Z,988.05
2018-06-16T05:25:24.645Z,988.07
2018-06-16T05:26:31.295Z,988.16
2018-06-16T05:27:38.379Z,988.16
2018-06-16T05:28:45.495Z,988.08
2018-06-16T05:29:52.344Z,988.16
2018-06-16T05:30:59.485Z,988.16
2018-06-16T05:32:06.212Z,988.17
2018-06-16T05:33:13.585Z,988.16
2018-06-16T05:34:20.119Z,988.15
2018-06-16T05:35:27.073Z,988.17
2018-06-16T05:36:33.879Z,988.12
2018-06-16T05:37:40.951Z,988.08
2018-06-16T05:38:47.647Z,988.14
2018-06-16T05:39:54.417Z,988.12
2018-06-16T05:41:01.356Z,988.11
2018-06-16T05:42:08.126Z,988.11
2018-06-16T05:43:15.232Z,988.11
2018-06-16T05:44:22.038Z,988.13
2018-06-16T05:45:29.120Z,988.08
2018-06-16T05:46:35.898Z,988.10
2018-06-16T05:47:42.855Z,988.06
2018-06-16T05:48:49.766Z,988.11
2018-06-16T05:49:56.615Z,988.11
2018-06-16T05:51:03.608Z,988.12
2018-06-16T05:52:10.447Z,988.08
2018-06-16T05:53:17.373Z,988.11
2018-06-16T05:54:24.304Z,988.08
2018-06-16T05:55:31.330Z,988.07
2018-06-16T05:56:38.235Z,988.07
2018-06-16T05:57:45.273Z,988.09
2018-06-16T05:58:53.772Z,988.08
2018-06-16T05:59:59.144Z,988.07
2018-06-16T06:01:06.031Z,988.16
2018-06-16T06:02:12.979Z,988.07
2018-06-16T06:03:20.044Z,988.00
2018-06-16T06:04:27.077Z,988.10
2018-06-16T06:05:33.873Z,987.99
2018-06-16T06:06:40.892Z,987.95
2018-06-16T06:07:48.924Z,987.98
2018-06-16T06:08:54.837Z,988.10
2018-06-16T06:10:01.850Z,988.06
2018-06-16T06:11:08.906Z,988.05
2018-06-16T06:12:15.843Z,988.04
2018-06-16T06:13:22.601Z,988.03
2018-06-16T06:14:29.544Z,988.04
2018-06-16T06:15:36.438Z,988.07
2018-06-16T06:16:43.342Z,988.07
2018-06-16T06:17:50.245Z,988.02
2018-06-16T06:18:57.204Z,988.01
2018-06-16T06:20:04.163Z,987.98
2018-06-16T06:21:10.984Z,988.06
2018-06-16T06:22:17.911Z,988.03
2018-06-16T06:23:24.761Z,988.00
2018-06-16T06:24:31.651Z,988.04
2018-06-16T06:25:38.593Z,988.08
2018-06-16T06:26:45.546Z,988.07
2018-06-16T06:27:52.560Z,988.09
2018-06-16T06:28:59.484Z,987.95
2018-06-16T06:30:06.439Z,988.05
2018-06-16T06:31:13.403Z,988.11
2018-06-16T06:32:20.228Z,988.02
2018-06-16T06:33:27.150Z,988.10
2018-06-16T06:34:33.955Z,988.08
2018-06-16T06:35:40.905Z,988.07
2018-06-16T06:36:47.942Z,988.09
2018-06-16T06:37:54.530Z,988.10
2018-06-16T06:39:01.505Z,988.05
2018-06-16T06:40:08.347Z,988.10
2018-06-16T06:41:15.399Z,988.09
2018-06-16T06:42:22.103Z,988.08
2018-06-16T06:43:28.903Z,988.08
2018-06-16T06:44:35.680Z,988.03
2018-06-16T06:45:42.365Z,988.04
2018-06-16T06:46:49.214Z,987.95
2018-06-16T06:47:55.899Z,988.08
2018-06-16T06:49:02.783Z,987.95
2018-06-16T06:50:09.666Z,987.97
2018-06-16T06:51:16.417Z,988.04
2018-06-16T06:52:23.139Z,988.02
2018-06-16T06:53:29.958Z,987.91
2018-06-16T06:54:36.774Z,988.02
2018-06-16T06:55:43.674Z,988.01
2018-06-16T06:56:50.460Z,987.94
2018-06-16T06:57:57.471Z,987.93
2018-06-16T06:59:04.248Z,987.83
2018-06-16T07:00:11.058Z,987.90
2018-06-16T07:01:18.196Z,987.87
2018-06-16T07:02:24.707Z,987.95
2018-06-16T07:03:31.583Z,987.94
2018-06-16T07:04:38.494Z,987.93
2018-06-16T07:05:45.275Z,987.93
2018-06-16T07:06:52.296Z,987.90
2018-06-16T07:07:59.020Z,987.96
2018-06-16T07:09:05.784Z,987.92
2018-06-16T07:10:13.023Z,987.96
2018-06-16T07:11:19.971Z,987.90
2018-06-16T07:12:26.618Z,987.97
2018-06-16T07:13:33.878Z,987.87
2018-06-16T07:14:40.913Z,987.89
2018-06-16T07:15:48.041Z,987.87
2018-06-16T07:16:54.984Z,987.90
2018-06-16T07:18:01.883Z,988.02
2018-06-16T07:19:08.729Z,987.93
2018-06-16T07:20:15.510Z,987.93
2018-06-16T07:21:22.610Z,987.91
2018-06-16T07:22:29.715Z,987.93
2018-06-16T07:23:36.144Z,987.93
2018-06-16T07:24:43.050Z,987.86
2018-06-16T07:25:49.953Z,987.91
2018-06-16T07:26:56.767Z,987.86
2018-06-16T07:28:03.653Z,987.81
2018-06-16T07:29:10.697Z,987.88
2018-06-16T07:30:17.443Z,987.90
2018-06-16T07:31:24.214Z,987.90
2018-06-16T07:32:31.200Z,987.93
2018-06-16T07:33:37.918Z,987.88
2018-06-16T07:34:44.618Z,987.80
2018-06-16T07:35:51.410Z,987.96
2018-06-16T07:36:58.445Z,987.92
2018-06-16T07:38:05.374Z,987.91
2018-06-16T07:39:12.340Z,987.90
2018-06-16T07:40:19.289Z,987.90
2018-06-16T07:41:26.229Z,987.98
2018-06-16T07:42:33.038Z,987.94
2018-06-16T07:43:39.775Z,987.85
2018-06-16T07:44:46.487Z,987.96
2018-06-16T07:45:53.295Z,987.88
2018-06-16T07:47:00.035Z,987.87
2018-06-16T07:48:06.803Z,987.88
2018-06-16T07:49:13.599Z,987.85
2018-06-16T07:50:20.426Z,987.87
2018-06-16T07:51:27.194Z,987.95
2018-06-16T07:52:34.080Z,987.88
2018-06-16T07:53:40.775Z,987.92
2018-06-16T07:54:47.529Z,987.89
2018-06-16T07:55:54.254Z,987.93
2018-06-16T07:57:01.107Z,987.88
2018-06-16T07:58:07.906Z,987.83
2018-06-16T07:59:14.596Z,987.92
2018-06-16T08:00:21.536Z,987.96
2018-06-16T08:01:28.467Z,987.89
2018-06-16T08:02:35.283Z,987.93
2018-06-16T08:03:42.317Z,987.92
2018-06-16T08:04:49.290Z,987.89
2018-06-16T08:05:56.028Z,987.93
2018-06-16T08:07:02.742Z,987.94
2018-06-16T08:08:09.956Z,987.89
2018-06-16T08:09:16.506Z,987.90
2018-06-16T08:10:23.384Z,987.92
2018-06-16T08:11:30.342Z,987.97
2018-06-16T08:12:37.269Z,987.99
2018-06-16T08:13:44.091Z,987.95
2018-06-16T08:14:50.970Z,987.88
2018-06-16T08:15:57.957Z,987.92
2018-06-16T08:17:04.697Z,987.96
2018-06-16T08:18:11.393Z,987.89
2018-06-16T08:19:18.180Z,987.83
2018-06-16T08:20:24.865Z,987.87
2018-06-16T08:21:31.686Z,987.84
2018-06-16T08:22:38.432Z,987.90
2018-06-16T08:23:45.273Z,987.79
2018-06-16T08:24:52.098Z,987.83
2018-06-16T08:25:58.965Z,987.83
2018-06-16T08:27:05.832Z,987.86
2018-06-16T08:28:12.611Z,987.81
2018-06-16T08:29:19.428Z,987.86
2018-06-16T08:30:26.158Z,987.82
2018-06-16T08:31:32.993Z,987.80
2018-06-16T08:32:39.826Z,987.84
2018-06-16T08:33:47.496Z,987.88
2018-06-16T08:34:53.500Z,987.85
2018-06-16T08:36:00.458Z,987.84
2018-06-16T08:37:07.410Z,987.89
2018-06-16T08:38:14.221Z,987.85
2018-06-16T08:39:21.145Z,987.83
2018-06-16T08:40:27.957Z,987.85
2018-06-16T08:41:34.788Z,987.80
2018-06-16T08:42:41.581Z,987.76
2018-06-16T08:43:48.434Z,987.80
2018-06-16T08:44:55.218Z,987.82
2018-06-16T08:46:02.063Z,987.76
2018-06-16T08:47:09.118Z,987.78
2018-06-16T08:48:15.644Z,987.80
2018-06-16T08:49:22.414Z,987.68
2018-06-16T08:50:29.265Z,987.73
2018-06-16T08:51:36.070Z,987.67
2018-06-16T08:52:42.839Z,987.66
2018-06-16T08:53:49.733Z,987.68
2018-06-16T08:54:56.425Z,987.68
2018-06-16T08:56:03.211Z,987.64
2018-06-16T08:57:10.054Z,987.64
2018-06-16T08:58:16.911Z,987.71
2018-06-16T08:59:23.755Z,987.70
2018-06-16T09:00:30.613Z,987.60
2018-06-16T09:01:37.409Z,987.61
2018-06-16T09:02:44.331Z,987.60
2018-06-16T09:03:51.113Z,987.68
2018-06-16T09:04:57.831Z,987.64
2018-06-16T09:06:04.543Z,987.66
2018-06-16T09:07:11.315Z,987.55
2018-06-16T09:08:18.188Z,987.58
2018-06-16T09:09:25.118Z,987.56
2018-06-16T09:10:31.908Z,987.64
2018-06-16T09:11:38.637Z,987.61
2018-06-16T09:12:45.366Z,987.61
2018-06-16T09:13:52.222Z,987.64
2018-06-16T09:14:59.048Z,987.59
2018-06-16T09:16:05.742Z,987.65
2018-06-16T09:17:12.639Z,987.62
2018-06-16T09:18:19.388Z,987.64
2018-06-16T09:19:26.111Z,987.67
2018-06-16T09:20:32.840Z,987.63
2018-06-16T09:21:39.753Z,987.59
2018-06-16T09:22:46.482Z,987.74
2018-06-16T09:23:53.616Z,987.70
2018-06-16T09:25:00.586Z,987.67
2018-06-16T09:26:07.597Z,987.60
2018-06-16T09:27:14.469Z,987.58
2018-06-16T09:28:21.473Z,987.67
2018-06-16T09:29:28.226Z,987.62
2018-06-16T09:30:35.234Z,987.67
2018-06-16T09:31:41.992Z,987.60
2018-06-16T09:32:48.898Z,987.62
2018-06-16T09:33:55.790Z,987.58
2018-06-16T09:35:02.497Z,987.58
2018-06-16T09:36:09.285Z,987.60
2018-06-16T09:37:16.202Z,987.58
2018-06-16T09:38:23.070Z,987.61
2018-06-16T09:39:29.791Z,987.53
2018-06-16T09:40:36.635Z,987.57
2018-06-16T09:41:43.656Z,987.66
2018-06-16T09:42:50.625Z,987.67
2018-06-16T09:43:57.589Z,987.66
2018-06-16T09:45:04.334Z,987.63
2018-06-16T09:46:11.180Z,987.63
2018-06-16T09:47:18.103Z,987.74
2018-06-16T09:48:25.032Z,987.71
2018-06-16T09:49:31.811Z,987.77
2018-06-16T09:50:38.838Z,987.67
2018-06-16T09:51:45.807Z,987.70
2018-06-16T09:52:52.623Z,987.67
2018-06-16T09:53:59.574Z,987.74
2018-06-16T09:55:06.500Z,987.65
2018-06-16T09:56:13.855Z,987.68
2018-06-16T09:57:20.306Z,987.65
2018-06-16T09:58:26.835Z,987.63
2018-06-16T09:59:33.786Z,987.71
2018-06-16T10:00:40.700Z,987.66
2018-06-16T10:01:47.675Z,987.69
2018-06-16T10:02:54.549Z,987.61
2018-06-16T10:04:01.570Z,987.67
2018-06-16T10:05:08.479Z,987.62
2018-06-16T10:06:15.438Z,987.61
2018-06-16T10:07:22.275Z,987.57
2018-06-16T10:08:29.499Z,987.57
2018-06-16T10:09:36.826Z,987.64
2018-06-16T10:10:43.555Z,987.64
2018-06-16T10:11:51.449Z,987.66
2018-06-16T10:12:56.774Z,987.65
2018-06-16T10:14:04.188Z,987.68
2018-06-16T10:15:10.623Z,987.66
2018-06-16T10:16:17.369Z,987.62
2018-06-16T10:17:24.346Z,987.59
2018-06-16T10:18:31.458Z,987.65
2018-06-16T10:19:38.254Z,987.59
2018-06-16T10:20:44.955Z,987.57
2018-06-16T10:21:52.051Z,987.60
2018-06-16T10:22:59.528Z,987.55
2018-06-16T10:24:06.393Z,987.57
2018-06-16T10:25:12.503Z,987.61
2018-06-16T10:26:19.342Z,987.55
2018-06-16T10:27:26.242Z,987.57
2018-06-16T10:28:33.287Z,987.49
2018-06-16T10:29:39.812Z,987.49
2018-06-16T10:30:46.801Z,987.48
2018-06-16T10:31:53.605Z,987.48
2018-06-16T10:33:00.384Z,987.50
2018-06-16T10:34:07.390Z,987.49
2018-06-16T10:35:14.251Z,987.37
2018-06-16T10:36:21.146Z,987.53
2018-06-16T10:37:27.867Z,987.46
2018-06-16T10:38:34.688Z,987.55
2018-06-16T10:39:41.517Z,987.55
2018-06-16T10:40:48.666Z,987.53
2018-06-16T10:41:55.583Z,987.41
2018-06-16T10:43:02.500Z,987.45
2018-06-16T10:44:09.242Z,987.46
2018-06-16T10:45:16.139Z,987.41
2018-06-16T10:46:22.853Z,987.41
2018-06-16T10:47:29.669Z,987.40
2018-06-16T10:48:36.405Z,987.39
2018-06-16T10:49:43.150Z,987.42
2018-06-16T10:50:49.866Z,987.43
2018-06-16T10:51:56.790Z,987.32
2018-06-16T10:53:03.555Z,987.43
2018-06-16T10:54:10.276Z,987.34
2018-06-16T10:55:17.185Z,987.37
2018-06-16T10:56:23.998Z,987.40
2018-06-16T10:57:30.719Z,987.37
2018-06-16T10:58:37.445Z,987.32
2018-06-16T10:59:44.389Z,987.33
2018-06-16T11:00:51.198Z,987.36
2018-06-16T11:01:57.970Z,987.38
2018-06-16T11:03:04.697Z,987.40
2018-06-16T11:04:11.469Z,987.41
2018-06-16T11:05:18.388Z,987.41
2018-06-16T11:06:25.126Z,987.31
2018-06-16T11:07:31.894Z,987.28
2018-06-16T11:08:38.624Z,987.33
2018-06-16T11:09:45.400Z,987.38
2018-06-16T11:10:52.167Z,987.33
2018-06-16T11:11:58.869Z,987.36
2018-06-16T11:13:05.622Z,987.34
2018-06-16T11:14:12.354Z,987.28
2018-06-16T11:15:19.167Z,987.36
2018-06-16T11:16:26.261Z,987.33
2018-06-16T11:17:32.961Z,987.31
2018-06-16T11:18:39.859Z,987.31
2018-06-16T11:19:46.787Z,987.35
2018-06-16T11:20:53.702Z,987.38
2018-06-16T11:22:00.637Z,987.32
2018-06-16T11:23:07.600Z,987.32
2018-06-16T11:24:14.495Z,987.39
2018-06-16T11:25:21.269Z,987.37
2018-06-16T11:26:28.146Z,987.38
2018-06-16T11:27:35.102Z,987.46
2018-06-16T11:28:41.985Z,987.37
2018-06-16T11:29:48.730Z,987.37
2018-06-16T11:30:55.548Z,987.39
2018-06-16T11:32:02.364Z,987.33
2018-06-16T11:33:09.491Z,987.32
2018-06-16T11:34:16.405Z,987.39
2018-06-16T11:35:23.358Z,987.29
2018-06-16T11:36:30.362Z,987.34
2018-06-16T11:37:37.282Z,987.44
2018-06-16T11:38:44.022Z,987.33
2018-06-16T11:39:51.043Z,987.33
2018-06-16T11:40:58.007Z,987.37
2018-06-16T11:42:04.749Z,987.29
2018-06-16T11:43:11.462Z,987.26
2018-06-16T11:44:18.227Z,987.29
2018-06-16T11:45:25.201Z,987.30
2018-06-16T11:46:31.954Z,987.32
2018-06-16T11:47:38.898Z,987.29
2018-06-16T11:48:45.975Z,987.20
2018-06-16T11:49:52.938Z,987.25
2018-06-16T11:51:00.040Z,987.13
2018-06-16T11:52:06.336Z,987.11
2018-06-16T11:53:13.061Z,987.07
2018-06-16T11:54:19.769Z,987.07
2018-06-16T11:55:26.571Z,987.04
2018-06-16T11:56:33.451Z,987.04
2018-06-16T11:57:40.331Z,986.97
2018-06-16T11:58:47.270Z,986.95
2018-06-16T11:59:54.214Z,986.95
2018-06-16T12:01:01.113Z,986.94
2018-06-16T12:02:08.022Z,986.90
2018-06-16T12:03:14.858Z,986.84
2018-06-16T12:04:21.599Z,986.95
2018-06-16T12:05:28.389Z,986.87
2018-06-16T12:06:35.112Z,986.94
2018-06-16T12:07:41.910Z,986.88
2018-06-16T12:08:48.634Z,986.95
2018-06-16T12:09:55.413Z,986.89
2018-06-16T12:11:02.152Z,986.89
2018-06-16T12:12:09.198Z,986.82
2018-06-16T12:13:15.938Z,986.82
2018-06-16T12:14:22.643Z,986.85
2018-06-16T12:15:29.585Z,986.84
2018-06-16T12:16:36.451Z,986.84
2018-06-16T12:17:43.632Z,986.94
2018-06-16T12:18:50.652Z,986.92
2018-06-16T12:19:57.349Z,986.84
2018-06-16T12:21:04.428Z,986.86
2018-06-16T12:22:11.409Z,986.90
2018-06-16T12:23:18.158Z,986.88
2018-06-16T12:24:25.142Z,986.93
2018-06-16T12:25:32.122Z,986.89
2018-06-16T12:26:38.829Z,986.93
2018-06-16T12:27:45.544Z,986.87
2018-06-16T12:28:52.629Z,986.96
2018-06-16T12:29:59.383Z,986.87
2018-06-16T12:31:06.114Z,986.82
2018-06-16T12:32:12.809Z,986.82
2018-06-16T12:33:19.503Z,986.92
2018-06-16T12:34:26.235Z,986.83
2018-06-16T12:35:32.994Z,986.87
2018-06-16T12:36:39.891Z,986.86
2018-06-16T12:37:46.802Z,986.90
2018-06-16T12:38:53.733Z,986.91
2018-06-16T12:40:00.398Z,986.90
2018-06-16T12:41:07.408Z,986.87
2018-06-16T12:42:14.266Z,986.88
2018-06-16T12:43:21.095Z,986.88
2018-06-16T12:44:27.961Z,986.80
2018-06-16T12:45:34.710Z,986.78
2018-06-16T12:46:41.446Z,986.76
2018-06-16T12:47:48.242Z,986.76
2018-06-16T12:48:54.965Z,986.86
2018-06-16T12:50:01.823Z,986.84
2018-06-16T12:51:08.985Z,986.82
2018-06-16T12:52:15.232Z,986.86
2018-06-16T12:53:22.070Z,986.88
2018-06-16T12:54:28.804Z,986.82
2018-06-16T12:55:35.654Z,986.81
2018-06-16T12:56:42.613Z,986.78
2018-06-16T12:57:49.619Z,986.82
2018-06-16T12:58:56.507Z,986.82
2018-06-16T13:00:03.403Z,986.79
2018-06-16T13:01:10.350Z,986.80
2018-06-16T13:02:17.303Z,986.77
2018-06-16T13:03:24.089Z,986.80
2018-06-16T13:04:30.911Z,986.76
2018-06-16T13:05:37.771Z,986.74
2018-06-16T13:06:44.517Z,986.77
2018-06-16T13:07:51.289Z,986.71
2018-06-16T13:08:58.418Z,986.76
2018-06-16T13:10:05.316Z,986.71
2018-06-16T13:11:12.302Z,986.69
2018-06-16T13:12:19.141Z,986.74
2018-06-16T13:13:26.164Z,986.67
2018-06-16T13:14:32.911Z,986.72
2018-06-16T13:15:40.078Z,986.73
2018-06-16T13:16:46.431Z,986.71
2018-06-16T13:17:53.157Z,986.66
2018-06-16T13:19:00.027Z,986.69
2018-06-16T13:20:07.250Z,986.72
2018-06-16T13:21:14.148Z,986.73
2018-06-16T13:22:20.894Z,986.69
2018-06-16T13:23:27.887Z,986.69
2018-06-16T13:24:34.676Z,986.67
2018-06-16T13:25:41.506Z,986.66
2018-06-16T13:26:48.270Z,986.59
2018-06-16T13:27:55.205Z,986.71
2018-06-16T13:29:01.992Z,986.66
2018-06-16T13:30:08.923Z,986.62
2018-06-16T13:31:15.879Z,986.72
2018-06-16T13:32:22.871Z,986.68
2018-06-16T13:33:29.605Z,986.61
2018-06-16T13:34:36.762Z,986.57
2018-06-16T13:35:43.626Z,986.65
2018-06-16T13:36:50.420Z,986.57
2018-06-16T13:37:57.290Z,986.59
2018-06-16T13:39:04.107Z,986.61
2018-06-16T13:40:10.886Z,986.63
2018-06-16T13:41:17.660Z,986.59
2018-06-16T13:42:24.578Z,986.58
2018-06-16T13:43:31.474Z,986.50
2018-06-16T13:44:38.374Z,986.52
2018-06-16T13:45:45.478Z,986.51
2018-06-16T13:46:54.236Z,986.59
2018-06-16T13:47:59.075Z,986.59
2018-06-16T13:49:05.782Z,986.61
2018-06-16T13:50:13.015Z,986.58
2018-06-16T13:51:19.829Z,986.49
2018-06-16T13:52:26.722Z,986.53
2018-06-16T13:53:33.585Z,986.51
2018-06-16T13:54:40.301Z,986.52